Thornburg, Virginia
Current Conditions -  °F | °C
As of 7:15 PM on Tuesday 25 Nov 2014 (Local Time) from KEZF Reporting Station
Clear Clear  
Wind Chill: 50°   Ceiling: Unl
Heat Index: 50°   Visibility: 10mi
Dew Point: 40°   Wind: 0mph
Humidity: 69%   Direction: NA
Pressure: 30.11"   Gusts: NA
Location:  38.13°N, 77.52°W
Report Text: KEZF 260015Z AUTO 00000KT 10SM CLR 10/05 A3011 RMK AO2 T01000045
Loading
Personal Weather Stations






























Interactive Weather Map New forecast layout! Learn more

10-Day Weather Forecast

Advertisements
Track Severe Weather on mobile